createdAt,value
2022-10-26T00:00:00.841Z,100.00
2022-10-26T00:02:27.513Z,100.00
2022-10-26T00:04:54.009Z,100.00
2022-10-26T00:07:20.446Z,100.00
2022-10-26T00:09:46.858Z,100.00
2022-10-26T00:12:13.274Z,100.00
2022-10-26T00:14:39.685Z,100.00
2022-10-26T00:17:06.369Z,100.00
2022-10-26T00:19:33.338Z,100.00
2022-10-26T00:21:59.767Z,100.00
2022-10-26T00:24:26.226Z,100.00
2022-10-26T00:26:52.631Z,100.00
2022-10-26T00:29:19.110Z,100.00
2022-10-26T00:31:45.691Z,100.00
2022-10-26T00:34:12.216Z,100.00
2022-10-26T00:36:38.666Z,100.00
2022-10-26T00:39:05.254Z,100.00
2022-10-26T00:41:32.974Z,100.00
2022-10-26T00:43:59.767Z,100.00
2022-10-26T00:46:37.673Z,100.00
2022-10-26T00:49:06.317Z,100.00
2022-10-26T00:51:39.341Z,100.00
2022-10-26T00:54:07.476Z,100.00
2022-10-26T00:56:34.587Z,100.00
2022-10-26T00:59:06.396Z,100.00
2022-10-26T01:01:33.974Z,100.00
2022-10-26T01:04:00.546Z,99.98
2022-10-26T01:06:31.244Z,99.90
2022-10-26T01:08:57.787Z,99.39
2022-10-26T01:11:24.201Z,100.00
2022-10-26T01:13:53.022Z,100.00
2022-10-26T01:16:19.414Z,100.00
2022-10-26T01:18:59.491Z,100.00
2022-10-26T01:21:41.044Z,100.00
2022-10-26T01:24:08.261Z,100.00
2022-10-26T01:26:37.763Z,100.00
2022-10-26T01:29:07.319Z,100.00
2022-10-26T01:31:47.821Z,100.00
2022-10-26T01:34:20.957Z,100.00
2022-10-26T01:36:54.930Z,99.84
2022-10-26T01:39:27.183Z,99.79
2022-10-26T01:41:56.270Z,100.00
2022-10-26T01:44:29.533Z,100.00
2022-10-26T01:46:58.172Z,100.00
2022-10-26T01:49:29.593Z,100.00
2022-10-26T01:51:56.054Z,100.00
2022-10-26T01:54:22.494Z,100.00
2022-10-26T01:56:51.308Z,100.00
2022-10-26T01:59:32.890Z,100.00
2022-10-26T02:01:59.327Z,100.00
2022-10-26T02:04:37.981Z,100.00
2022-10-26T02:07:29.502Z,100.00
2022-10-26T02:09:58.946Z,100.00
2022-10-26T02:12:38.574Z,100.00
2022-10-26T02:15:17.534Z,100.00
2022-10-26T02:17:52.065Z,100.00
2022-10-26T02:20:22.402Z,100.00
2022-10-26T02:22:50.456Z,100.00
2022-10-26T02:25:22.549Z,100.00
2022-10-26T02:27:51.575Z,100.00
2022-10-26T02:30:18.682Z,100.00
2022-10-26T02:32:47.010Z,100.00
2022-10-26T02:35:14.483Z,100.00
2022-10-26T02:37:41.538Z,100.00
2022-10-26T02:40:11.546Z,100.00
2022-10-26T02:42:40.129Z,100.00
2022-10-26T02:45:10.167Z,100.00
2022-10-26T02:47:36.825Z,100.00
2022-10-26T02:50:03.718Z,100.00
2022-10-26T02:52:33.121Z,100.00
2022-10-26T02:55:04.155Z,100.00
2022-10-26T02:57:39.819Z,100.00
2022-10-26T03:00:07.499Z,100.00
2022-10-26T03:02:34.089Z,100.00
2022-10-26T03:05:18.013Z,100.00
2022-10-26T03:07:44.478Z,100.00
2022-10-26T03:10:11.041Z,100.00
2022-10-26T03:12:37.529Z,100.00
2022-10-26T03:15:04.777Z,100.00
2022-10-26T03:17:31.229Z,100.00
2022-10-26T03:19:57.653Z,100.00
2022-10-26T03:22:24.142Z,100.00
2022-10-26T03:24:50.616Z,100.00
2022-10-26T03:27:17.021Z,100.00
2022-10-26T03:29:43.446Z,100.00
2022-10-26T03:32:09.849Z,100.00
2022-10-26T03:34:36.311Z,100.00
2022-10-26T03:37:02.727Z,100.00
2022-10-26T03:39:29.209Z,100.00
2022-10-26T03:41:55.944Z,100.00
2022-10-26T03:44:22.766Z,100.00
2022-10-26T03:46:49.221Z,100.00
2022-10-26T03:49:15.660Z,100.00
2022-10-26T03:51:42.086Z,100.00
2022-10-26T03:54:08.603Z,100.00
2022-10-26T03:56:35.036Z,100.00
2022-10-26T03:59:01.465Z,100.00
2022-10-26T04:01:27.938Z,100.00
2022-10-26T04:03:54.402Z,100.00
2022-10-26T04:06:20.890Z,100.00
2022-10-26T04:08:47.325Z,100.00
2022-10-26T04:11:13.779Z,100.00
2022-10-26T04:13:40.278Z,100.00
2022-10-26T04:16:06.845Z,100.00
2022-10-26T04:18:33.320Z,100.00
2022-10-26T04:21:02.786Z,100.00
2022-10-26T04:23:29.284Z,100.00
2022-10-26T04:25:55.777Z,100.00
2022-10-26T04:28:22.230Z,100.00
2022-10-26T04:30:48.694Z,100.00
2022-10-26T04:33:15.126Z,100.00
2022-10-26T04:35:42.915Z,100.00
2022-10-26T04:38:10.098Z,100.00
2022-10-26T04:40:36.522Z,100.00
2022-10-26T04:43:02.974Z,100.00
2022-10-26T04:45:30.816Z,100.00
2022-10-26T04:48:01.364Z,100.00
2022-10-26T04:50:28.484Z,100.00
2022-10-26T04:52:55.330Z,100.00
2022-10-26T04:55:21.883Z,100.00
2022-10-26T04:57:48.553Z,100.00
2022-10-26T05:00:15.449Z,100.00
2022-10-26T05:02:41.896Z,100.00
2022-10-26T05:05:11.226Z,100.00
2022-10-26T05:07:40.799Z,100.00
2022-10-26T05:10:07.555Z,100.00
2022-10-26T05:12:34.017Z,100.00
2022-10-26T05:15:02.950Z,100.00
2022-10-26T05:17:31.673Z,100.00
2022-10-26T05:20:00.289Z,100.00
2022-10-26T05:22:26.875Z,100.00
2022-10-26T05:24:53.311Z,100.00
2022-10-26T05:27:19.813Z,100.00
2022-10-26T05:29:46.226Z,100.00
2022-10-26T05:32:12.654Z,100.00
2022-10-26T05:34:40.854Z,100.00
2022-10-26T05:37:08.067Z,100.00
2022-10-26T05:39:34.464Z,100.00
2022-10-26T05:42:00.894Z,100.00
2022-10-26T05:44:27.513Z,100.00
2022-10-26T05:46:53.972Z,100.00
2022-10-26T05:49:20.433Z,100.00
2022-10-26T05:51:46.880Z,100.00
2022-10-26T05:54:14.123Z,100.00
2022-10-26T05:56:41.293Z,100.00
2022-10-26T05:59:15.650Z,100.00
2022-10-26T06:01:45.152Z,100.00
2022-10-26T06:04:21.171Z,100.00
2022-10-26T06:06:51.612Z,100.00
2022-10-26T06:09:18.149Z,100.00
2022-10-26T06:11:44.764Z,100.00
2022-10-26T06:14:11.484Z,100.00
2022-10-26T06:16:52.905Z,100.00
2022-10-26T06:19:27.501Z,100.00
2022-10-26T06:22:07.794Z,100.00
2022-10-26T06:24:52.935Z,100.00
2022-10-26T06:27:22.340Z,100.00
2022-10-26T06:30:00.937Z,100.00
2022-10-26T06:32:27.834Z,100.00
2022-10-26T06:35:03.671Z,100.00
2022-10-26T06:37:33.930Z,100.00
2022-10-26T06:40:00.615Z,97.26
2022-10-26T06:42:27.110Z,100.00
2022-10-26T06:44:53.728Z,100.00
2022-10-26T06:47:40.467Z,100.00
2022-10-26T06:50:23.990Z,100.00
2022-10-26T06:53:08.927Z,100.00
2022-10-26T06:55:45.549Z,100.00
2022-10-26T06:58:15.785Z,100.00
2022-10-26T07:00:44.055Z,100.00
2022-10-26T07:03:10.745Z,100.00
2022-10-26T07:05:37.290Z,100.00
2022-10-26T07:08:04.660Z,100.00
2022-10-26T07:10:31.449Z,100.00
2022-10-26T07:12:58.051Z,100.00
2022-10-26T07:15:24.470Z,100.00
2022-10-26T07:17:51.284Z,100.00
2022-10-26T07:20:19.093Z,100.00
2022-10-26T07:22:45.620Z,100.00
2022-10-26T07:25:12.659Z,100.00
2022-10-26T07:27:39.398Z,100.00
2022-10-26T07:30:06.206Z,100.00
2022-10-26T07:32:33.032Z,100.00
2022-10-26T07:34:59.453Z,100.00
2022-10-26T07:37:25.882Z,100.00
2022-10-26T07:39:52.361Z,100.00
2022-10-26T07:42:18.815Z,100.00
2022-10-26T07:44:45.262Z,100.00
2022-10-26T07:47:11.736Z,100.00
2022-10-26T07:49:38.158Z,100.00
2022-10-26T07:52:04.761Z,100.00
2022-10-26T07:54:31.637Z,100.00
2022-10-26T07:56:58.192Z,100.00
2022-10-26T07:59:24.706Z,100.00
2022-10-26T08:01:51.200Z,100.00
2022-10-26T08:04:17.852Z,96.33
2022-10-26T08:06:44.406Z,96.35
2022-10-26T08:09:10.855Z,95.07
2022-10-26T08:11:37.305Z,95.37
2022-10-26T08:14:04.109Z,98.58
2022-10-26T08:16:31.330Z,97.01
2022-10-26T08:18:57.834Z,97.85
2022-10-26T08:21:36.303Z,96.66
2022-10-26T08:24:06.369Z,97.68
2022-10-26T08:26:32.890Z,97.49
2022-10-26T08:28:59.331Z,97.76
2022-10-26T08:31:25.842Z,97.38
2022-10-26T08:33:52.324Z,98.14
2022-10-26T08:36:22.901Z,97.75
2022-10-26T08:38:49.440Z,98.85
2022-10-26T08:41:15.926Z,97.67
2022-10-26T08:43:47.031Z,94.58
2022-10-26T08:46:19.310Z,97.29
2022-10-26T08:48:56.158Z,96.65
2022-10-26T08:51:25.603Z,95.84
2022-10-26T08:54:04.054Z,92.99
2022-10-26T08:56:50.834Z,93.10
2022-10-26T08:59:26.868Z,93.05
2022-10-26T09:01:54.006Z,88.28
2022-10-26T09:04:23.942Z,88.46
2022-10-26T09:07:15.546Z,87.52
2022-10-26T09:10:00.197Z,85.18
2022-10-26T09:12:32.005Z,86.04
2022-10-26T09:14:58.418Z,85.47
2022-10-26T09:17:34.089Z,85.21
2022-10-26T09:20:06.573Z,85.40
2022-10-26T09:22:32.982Z,86.67
2022-10-26T09:25:05.419Z,89.23
2022-10-26T09:27:40.218Z,88.57
2022-10-26T09:30:13.939Z,88.37
2022-10-26T09:32:44.525Z,89.02
2022-10-26T09:35:17.545Z,86.82
2022-10-26T09:37:47.255Z,86.44
2022-10-26T09:40:25.921Z,85.85
2022-10-26T09:43:05.552Z,83.38
2022-10-26T09:45:37.239Z,81.75
2022-10-26T09:48:27.030Z,84.74
2022-10-26T09:50:53.657Z,85.54
2022-10-26T09:53:20.074Z,81.39
2022-10-26T09:55:47.138Z,82.03
2022-10-26T09:58:20.220Z,78.74
2022-10-26T10:00:46.724Z,80.76
2022-10-26T10:03:26.273Z,79.15
2022-10-26T10:05:53.152Z,76.38
2022-10-26T10:08:23.970Z,76.12
2022-10-26T10:11:02.094Z,72.25
2022-10-26T10:13:33.008Z,69.28
2022-10-26T10:16:11.715Z,72.30
2022-10-26T10:18:39.686Z,65.31
2022-10-26T10:21:07.055Z,63.86
2022-10-26T10:23:34.710Z,62.35
2022-10-26T10:26:02.664Z,59.73
2022-10-26T10:28:29.403Z,63.73
2022-10-26T10:31:02.405Z,60.09
2022-10-26T10:33:33.820Z,58.50
2022-10-26T10:36:00.972Z,60.09
2022-10-26T10:38:27.442Z,60.19
2022-10-26T10:40:56.512Z,59.42
2022-10-26T10:43:22.979Z,60.28
2022-10-26T10:45:53.663Z,55.10
2022-10-26T10:48:26.608Z,60.31
2022-10-26T10:51:04.122Z,61.34
2022-10-26T10:53:30.540Z,61.42
2022-10-26T10:56:15.946Z,58.74
2022-10-26T10:58:42.347Z,58.42
2022-10-26T11:01:14.048Z,55.92
2022-10-26T11:03:47.548Z,55.62
2022-10-26T11:06:16.711Z,51.43
2022-10-26T11:08:50.438Z,51.65
2022-10-26T11:11:20.568Z,54.15
2022-10-26T11:14:04.817Z,53.17
2022-10-26T11:16:33.383Z,52.75
2022-10-26T11:19:07.381Z,55.70
2022-10-26T11:21:37.835Z,48.15
2022-10-26T11:24:12.870Z,50.40
2022-10-26T11:26:55.623Z,52.39
2022-10-26T11:29:28.082Z,52.86
2022-10-26T11:31:59.399Z,52.99
2022-10-26T11:34:52.394Z,52.87
2022-10-26T11:37:21.945Z,54.67
2022-10-26T11:40:07.329Z,52.82
2022-10-26T11:42:42.097Z,51.95
2022-10-26T11:45:24.867Z,53.57
2022-10-26T11:48:14.306Z,55.94
2022-10-26T11:50:43.098Z,54.95
2022-10-26T11:53:09.502Z,53.46
2022-10-26T11:55:35.979Z,52.09
2022-10-26T11:58:03.273Z,51.55
2022-10-26T12:00:29.894Z,53.30
2022-10-26T12:03:16.586Z,51.91
2022-10-26T12:05:52.719Z,51.68
2022-10-26T12:08:23.193Z,51.70
2022-10-26T12:10:54.193Z,52.35
2022-10-26T12:13:42.381Z,52.16
2022-10-26T12:16:26.018Z,53.07
2022-10-26T12:19:01.122Z,53.09
2022-10-26T12:21:29.093Z,53.05
2022-10-26T12:23:59.830Z,53.40
2022-10-26T12:26:26.312Z,54.16
2022-10-26T12:29:02.005Z,54.11
2022-10-26T12:31:37.890Z,54.09
2022-10-26T12:34:05.660Z,54.67
2022-10-26T12:37:28.793Z,54.44
2022-10-26T12:39:55.231Z,54.70
2022-10-26T12:42:24.445Z,52.99
2022-10-26T12:44:50.845Z,50.82
2022-10-26T12:47:32.597Z,51.38
2022-10-26T12:50:02.171Z,53.92
2022-10-26T12:52:28.636Z,52.11
2022-10-26T12:55:03.854Z,52.43
2022-10-26T12:57:36.619Z,55.45
2022-10-26T13:00:05.914Z,53.96
2022-10-26T13:02:47.743Z,52.62
2022-10-26T13:05:29.740Z,52.35
2022-10-26T13:08:10.145Z,53.27
2022-10-26T13:10:38.098Z,52.49
2022-10-26T13:13:06.241Z,54.24
2022-10-26T13:15:35.738Z,55.22
2022-10-26T13:18:22.566Z,57.75
2022-10-26T13:20:52.042Z,58.89
2022-10-26T13:23:26.705Z,60.82
2022-10-26T13:26:13.267Z,59.28
2022-10-26T13:28:39.755Z,58.94
2022-10-26T13:31:26.165Z,59.17
2022-10-26T13:33:56.182Z,60.86
2022-10-26T13:36:40.992Z,59.76
2022-10-26T13:39:15.037Z,62.00
2022-10-26T13:41:43.660Z,62.95
2022-10-26T13:44:25.207Z,61.54
2022-10-26T13:46:55.443Z,60.87
2022-10-26T13:49:25.126Z,61.94
2022-10-26T13:51:52.215Z,62.96
2022-10-26T13:54:25.683Z,62.21
2022-10-26T13:56:59.710Z,66.14
2022-10-26T13:59:26.879Z,68.65
2022-10-26T14:02:16.603Z,69.94
2022-10-26T14:04:45.295Z,69.63
2022-10-26T14:07:15.941Z,70.10
2022-10-26T14:09:43.051Z,71.22
2022-10-26T14:12:11.144Z,68.95
2022-10-26T14:14:38.441Z,68.90
2022-10-26T14:17:05.488Z,69.50
2022-10-26T14:19:36.589Z,69.83
2022-10-26T14:22:03.574Z,69.65
2022-10-26T14:24:48.181Z,68.68
2022-10-26T14:27:17.986Z,66.87
2022-10-26T14:29:49.915Z,63.24
2022-10-26T14:32:38.586Z,61.82
2022-10-26T14:35:05.269Z,61.64
2022-10-26T14:37:41.058Z,60.57
2022-10-26T14:40:13.965Z,61.14
2022-10-26T14:42:44.511Z,62.31
2022-10-26T14:45:29.504Z,61.89
2022-10-26T14:47:56.840Z,63.76
2022-10-26T14:50:24.315Z,63.85
2022-10-26T14:52:52.997Z,65.66
2022-10-26T14:55:19.919Z,67.17
2022-10-26T14:57:47.481Z,69.71
2022-10-26T15:00:15.687Z,70.39
2022-10-26T15:02:46.696Z,71.81
2022-10-26T15:05:16.026Z,72.23
2022-10-26T15:07:44.538Z,73.85
2022-10-26T15:10:29.827Z,77.64
2022-10-26T15:12:58.088Z,78.74
2022-10-26T15:15:25.976Z,80.36
2022-10-26T15:17:54.173Z,81.54
2022-10-26T15:20:25.461Z,84.45
2022-10-26T15:22:56.718Z,84.78
2022-10-26T15:25:24.816Z,83.07
2022-10-26T15:27:51.908Z,84.44
2022-10-26T15:30:21.068Z,87.42
2022-10-26T15:32:47.666Z,89.61
2022-10-26T15:35:20.094Z,90.11
2022-10-26T15:37:47.216Z,87.55
2022-10-26T15:40:13.812Z,86.63
2022-10-26T15:42:41.674Z,86.89
2022-10-26T15:45:25.798Z,87.53
2022-10-26T15:47:53.158Z,87.13
2022-10-26T15:50:21.438Z,86.90
2022-10-26T15:52:49.398Z,86.50
2022-10-26T15:55:16.854Z,86.31
2022-10-26T15:57:43.379Z,88.95
2022-10-26T16:00:15.034Z,89.55
2022-10-26T16:02:42.206Z,89.11
2022-10-26T16:05:08.774Z,88.58
2022-10-26T16:07:35.211Z,88.37
2022-10-26T16:10:01.629Z,89.54
2022-10-26T16:12:28.033Z,89.71
2022-10-26T16:15:05.185Z,89.75
2022-10-26T16:17:33.429Z,89.88
2022-10-26T16:20:02.281Z,90.36
2022-10-26T16:22:30.985Z,92.18
2022-10-26T16:24:59.146Z,92.74
2022-10-26T16:27:25.618Z,92.57
2022-10-26T16:29:52.029Z,91.71
2022-10-26T16:32:18.445Z,91.10
2022-10-26T16:34:44.851Z,91.81
2022-10-26T16:37:11.279Z,93.89
2022-10-26T16:39:37.691Z,93.64
2022-10-26T16:42:04.261Z,92.71
2022-10-26T16:44:30.667Z,92.33
2022-10-26T16:46:57.090Z,92.34
2022-10-26T16:49:23.498Z,91.88
2022-10-26T16:51:49.908Z,92.39
2022-10-26T16:54:16.400Z,93.21
2022-10-26T16:56:43.005Z,92.83
2022-10-26T16:59:10.430Z,92.52
2022-10-26T17:01:36.962Z,92.99
2022-10-26T17:06:35.150Z,93.96
2022-10-26T17:09:01.715Z,93.63
2022-10-26T17:11:28.138Z,93.25
2022-10-26T17:13:55.110Z,93.32
2022-10-26T17:16:22.401Z,93.37
2022-10-26T17:18:48.898Z,92.44
2022-10-26T17:21:16.741Z,92.50
2022-10-26T17:23:43.175Z,92.10
2022-10-26T17:26:10.728Z,92.15
2022-10-26T17:28:37.370Z,92.44
2022-10-26T17:31:10.975Z,92.71
2022-10-26T17:33:38.159Z,93.63
2022-10-26T17:36:05.438Z,93.47
2022-10-26T17:38:33.106Z,93.93
2022-10-26T17:41:00.254Z,94.71
2022-10-26T17:43:26.659Z,94.44
2022-10-26T17:45:57.639Z,93.87
2022-10-26T17:48:24.120Z,94.34
2022-10-26T17:50:51.611Z,97.11
2022-10-26T17:53:18.046Z,98.06
2022-10-26T17:55:44.441Z,97.51
2022-10-26T17:58:10.894Z,96.96
2022-10-26T18:00:37.350Z,97.17
2022-10-26T18:03:03.798Z,97.86
2022-10-26T18:05:31.741Z,98.75
2022-10-26T18:07:58.242Z,98.15
2022-10-26T18:10:37.569Z,98.32
2022-10-26T18:13:04.578Z,98.85
2022-10-26T18:15:31.040Z,98.50
2022-10-26T18:17:58.608Z,98.89
2022-10-26T18:20:27.157Z,99.55
2022-10-26T18:22:53.556Z,99.88
2022-10-26T18:25:19.970Z,99.78
2022-10-26T18:27:46.445Z,100.00
2022-10-26T18:30:13.039Z,100.00
2022-10-26T18:32:39.535Z,100.00
2022-10-26T18:35:06.081Z,100.00
2022-10-26T18:37:32.605Z,99.75
2022-10-26T18:39:59.057Z,99.34
2022-10-26T18:42:25.529Z,99.01
2022-10-26T18:44:52.031Z,99.57
2022-10-26T18:47:18.470Z,99.44
2022-10-26T18:49:44.894Z,99.58
2022-10-26T18:52:11.547Z,99.74
2022-10-26T18:54:38.028Z,99.39
2022-10-26T18:57:04.426Z,99.57
2022-10-26T18:59:30.891Z,99.31
2022-10-26T19:01:57.443Z,99.37
2022-10-26T19:04:24.050Z,99.96
2022-10-26T19:06:50.674Z,99.55
2022-10-26T19:09:18.420Z,100.00
2022-10-26T19:11:44.951Z,100.00
2022-10-26T19:14:11.636Z,100.00
2022-10-26T19:16:47.604Z,100.00
2022-10-26T19:19:15.648Z,100.00
2022-10-26T19:21:42.161Z,100.00
2022-10-26T19:24:16.293Z,100.00
2022-10-26T19:26:44.056Z,100.00
2022-10-26T19:29:15.308Z,100.00
2022-10-26T19:31:42.719Z,100.00
2022-10-26T19:34:10.074Z,100.00
2022-10-26T19:36:36.709Z,100.00
2022-10-26T19:39:03.527Z,100.00
2022-10-26T19:41:31.236Z,100.00
2022-10-26T19:46:30.952Z,100.00
2022-10-26T19:48:58.676Z,100.00
2022-10-26T19:51:25.957Z,100.00
2022-10-26T19:53:52.644Z,100.00
2022-10-26T19:56:20.550Z,100.00
2022-10-26T19:58:47.558Z,100.00
2022-10-26T20:01:15.036Z,100.00
2022-10-26T20:03:41.884Z,100.00
2022-10-26T20:06:12.725Z,100.00
2022-10-26T20:08:43.394Z,100.00
2022-10-26T20:11:14.639Z,100.00
2022-10-26T20:13:43.086Z,100.00
2022-10-26T20:16:09.560Z,100.00
2022-10-26T20:18:36.307Z,100.00
2022-10-26T20:21:06.469Z,100.00
2022-10-26T20:23:32.914Z,100.00
2022-10-26T20:26:00.398Z,100.00
2022-10-26T20:28:27.170Z,100.00
2022-10-26T20:30:53.620Z,100.00
2022-10-26T20:33:20.244Z,100.00
2022-10-26T20:35:46.846Z,100.00
2022-10-26T20:38:19.809Z,100.00
2022-10-26T20:40:51.613Z,100.00
2022-10-26T20:43:18.758Z,100.00
2022-10-26T20:45:45.430Z,100.00
2022-10-26T20:48:12.433Z,100.00
2022-10-26T20:50:40.195Z,100.00
2022-10-26T20:53:25.269Z,100.00
2022-10-26T20:55:56.795Z,100.00
2022-10-26T20:58:26.273Z,100.00
2022-10-26T21:00:59.106Z,100.00
2022-10-26T21:03:25.598Z,100.00
2022-10-26T21:05:52.277Z,100.00
2022-10-26T21:08:18.989Z,100.00
2022-10-26T21:10:45.435Z,100.00
2022-10-26T21:13:12.609Z,100.00
2022-10-26T21:15:39.038Z,100.00
2022-10-26T21:18:05.829Z,100.00
2022-10-26T21:20:32.909Z,100.00
2022-10-26T21:22:59.314Z,100.00
2022-10-26T21:25:25.725Z,100.00
2022-10-26T21:27:56.001Z,100.00
2022-10-26T21:30:22.866Z,100.00
2022-10-26T21:32:49.407Z,100.00
2022-10-26T21:35:15.906Z,100.00
2022-10-26T21:37:42.355Z,100.00
2022-10-26T21:40:09.210Z,100.00
2022-10-26T21:42:35.674Z,100.00
2022-10-26T21:45:02.118Z,100.00
2022-10-26T21:47:28.528Z,100.00
2022-10-26T21:49:54.982Z,100.00
2022-10-26T21:52:21.391Z,100.00
2022-10-26T21:54:47.959Z,100.00
2022-10-26T21:57:15.349Z,100.00
2022-10-26T21:59:41.914Z,100.00
2022-10-26T22:02:08.429Z,100.00
2022-10-26T22:04:34.957Z,100.00
2022-10-26T22:07:01.396Z,100.00
2022-10-26T22:09:27.829Z,100.00
2022-10-26T22:11:54.249Z,100.00
2022-10-26T22:14:21.010Z,100.00
2022-10-26T22:16:47.463Z,100.00
2022-10-26T22:19:13.886Z,100.00
2022-10-26T22:21:41.218Z,100.00
2022-10-26T22:24:08.000Z,98.57
2022-10-26T22:26:35.474Z,100.00
2022-10-26T22:29:02.198Z,100.00
2022-10-26T22:34:02.034Z,100.00
2022-10-26T22:36:31.843Z,100.00
2022-10-26T22:38:58.320Z,100.00
2022-10-26T22:41:24.810Z,100.00
2022-10-26T22:43:51.296Z,100.00
2022-10-26T22:46:19.142Z,100.00
2022-10-26T22:48:45.779Z,100.00
2022-10-26T22:51:16.516Z,100.00
2022-10-26T22:53:43.387Z,100.00
2022-10-26T22:56:11.101Z,100.00
2022-10-26T22:58:37.799Z,100.00
2022-10-26T23:01:05.894Z,100.00
2022-10-26T23:03:32.729Z,100.00
2022-10-26T23:05:59.621Z,100.00
2022-10-26T23:08:26.272Z,100.00
2022-10-26T23:10:52.860Z,100.00
2022-10-26T23:13:19.302Z,100.00
2022-10-26T23:15:45.809Z,100.00
2022-10-26T23:18:12.248Z,100.00
2022-10-26T23:20:38.751Z,100.00
2022-10-26T23:23:05.199Z,100.00
2022-10-26T23:25:31.639Z,100.00
2022-10-26T23:27:58.120Z,100.00
2022-10-26T23:30:24.595Z,100.00
2022-10-26T23:32:51.193Z,100.00
2022-10-26T23:35:17.888Z,100.00
2022-10-26T23:37:44.297Z,100.00
2022-10-26T23:40:10.990Z,100.00
2022-10-26T23:42:37.465Z,100.00
2022-10-26T23:45:04.025Z,100.00
2022-10-26T23:47:30.445Z,100.00
2022-10-26T23:49:56.910Z,100.00
2022-10-26T23:52:23.387Z,100.00
2022-10-26T23:57:16.153Z,100.00
2022-10-26T23:59:42.745Z,100.00
